Weather at The Pas Airport

Public forecast

Using degrees Celsius for public forecast. Weather courtesy of forecast.io.

Current aviation weather report (METAR) for The Pas Airport

Retrieved 2021/10/25 12:00 UTC (47 minutes ago):

CYQD 251200Z AUTO 13011KT 9SM CLR 02/M00 A3006 RMK SLP193

Aviation forecast (TAF) for The Pas Airport

Retrieved 2021/10/25 13:39 UTC (0 seconds ago):

TAF TAF CYQD 251238Z 2513/2601 13012G22KT P6SM SCT020 TEMPO 2513/2514 BKN020 FM251400 14012G22KT P6SM OVC030 TEMPO 2514/2601 OVC015 RMK FCST BASED ON AUTO OBS NXT FCST BY 251900Z